Sheppard Air Force Base-Wichita Falls Municipal Airport
KSPS : now visible

Airfield :











YOU CAN JOIN US ON...

 
LOGIN :

Register | Disclaimer

   EN    FR    IT 

 









Legend :    VFR   Marginal VFR   IFR   Intensive IFR   Very Intensive IFR
Visi :
Ceiling :
>= 8 km
>= 3000ft
5 to 8 km
1000 to 3000 ft
1500m to 5 km
500 to 1000 ft
800 to 1500m
200 to 500 ft
< 800m
< 200 ft
Symbols :   Thunderstorms  Fog  Heavy snow  Heavy precipitations  Wind > 20 kt







- Airport Elevation : 1019 ft
- IATA code : SPS


KSPS - Sheppard Air Force Base-Wichita Falls Municipal

CURRENT METAR :
  • 201152Z 22005KT 8SM SCT013 M02/M02 A2992 RMK AO2 SLP138 70009 T10171022 10017 21022 51002

EXPIRED METARs :
  • 201052Z 21004KT 10SM CLR M02/M02 A2992 RMK AO2 SLP136 T10171022
  • 201021Z 25005KT 10SM SCT012 M01/M01 A2991 RMK AO2 T10061011
  • 200952Z 27006KT 10SM OVC013 01/M01 A2992 RMK AO2 SLP137 T00061006

TAF KSPS
Valid from the 20 at 12:00 until the 21 at 12:00 UTC


201120Z 2012/2112 23006KT P6SM BKN250
FM201600 25011KT P6SM SCT250
FM210000 15006KT P6SM BKN250
KZFW FIR / North America



MET'MAP, your aeronautical weather chart ! - Copyright ORBIFLY December 2007 - Disclaimer

ORBIFLY MET'MAP TEAM :

Programming & Development : Alexandra Zaïnal
Concept & Development : Baudouin d'Aumeries
Co-Development & Prog : Marc-Olivier Méhu
Technical & hardware support : Manuel Goepfert

Contact : metmap@orbifly.com




SOURCES & CREDITS :

   NOAA       Earth
Advisory